createdAt,value
2023-02-05T00:02:13.619Z,100.00
2023-02-05T00:04:41.148Z,100.00
2023-02-05T00:07:08.497Z,100.00
2023-02-05T00:09:36.843Z,100.00
2023-02-05T00:12:04.429Z,100.00
2023-02-05T00:14:31.730Z,100.00
2023-02-05T00:16:58.935Z,100.00
2023-02-05T00:19:26.290Z,100.00
2023-02-05T00:21:53.473Z,100.00
2023-02-05T00:24:20.726Z,100.00
2023-02-05T00:26:47.962Z,100.00
2023-02-05T00:29:15.236Z,100.00
2023-02-05T00:31:42.537Z,100.00
2023-02-05T00:34:09.950Z,100.00
2023-02-05T00:36:37.161Z,100.00
2023-02-05T00:39:04.595Z,100.00
2023-02-05T00:41:32.019Z,100.00
2023-02-05T00:43:59.334Z,100.00
2023-02-05T00:46:27.860Z,100.00
2023-02-05T00:48:55.191Z,100.00
2023-02-05T00:51:22.464Z,100.00
2023-02-05T00:53:49.671Z,100.00
2023-02-05T00:56:16.990Z,100.00
2023-02-05T00:58:49.972Z,100.00
2023-02-05T01:01:18.139Z,100.00
2023-02-05T01:03:45.444Z,100.00
2023-02-05T01:06:12.791Z,100.00
2023-02-05T01:08:40.103Z,100.00
2023-02-05T01:11:11.225Z,100.00
2023-02-05T01:13:39.507Z,100.00
2023-02-05T01:16:07.600Z,100.00
2023-02-05T01:18:35.057Z,100.00
2023-02-05T01:21:02.869Z,100.00
2023-02-05T01:23:30.204Z,100.00
2023-02-05T01:25:57.446Z,100.00
2023-02-05T01:28:24.694Z,100.00
2023-02-05T01:30:52.361Z,100.00
2023-02-05T01:33:19.988Z,100.00
2023-02-05T01:35:47.408Z,100.00
2023-02-05T01:38:15.557Z,100.00
2023-02-05T01:40:43.544Z,100.00
2023-02-05T01:43:15.150Z,100.00
2023-02-05T01:46:24.621Z,100.00
2023-02-05T01:48:58.109Z,100.00
2023-02-05T01:51:29.698Z,100.00
2023-02-05T01:53:57.229Z,100.00
2023-02-05T01:56:35.818Z,100.00
2023-02-05T01:59:28.389Z,100.00
2023-02-05T02:01:56.444Z,100.00
2023-02-05T02:05:08.881Z,100.00
2023-02-05T02:07:36.807Z,100.00
2023-02-05T02:10:06.042Z,100.00
2023-02-05T02:12:38.327Z,100.00
2023-02-05T02:15:15.905Z,100.00
2023-02-05T02:17:52.634Z,100.00
2023-02-05T02:20:28.574Z,100.00
2023-02-05T02:22:55.609Z,100.00
2023-02-05T02:25:43.878Z,100.00
2023-02-05T02:28:39.154Z,100.00
2023-02-05T02:31:39.774Z,100.00
2023-02-05T02:34:41.909Z,100.00
2023-02-05T02:38:06.898Z,100.00
2023-02-05T02:40:55.153Z,100.00
2023-02-05T02:43:41.852Z,100.00
2023-02-05T02:46:41.233Z,100.00
2023-02-05T02:49:15.701Z,100.00
2023-02-05T02:51:43.968Z,100.00
2023-02-05T02:54:17.438Z,100.00
2023-02-05T02:56:48.716Z,100.00
2023-02-05T02:59:21.174Z,100.00
2023-02-05T03:01:56.934Z,100.00
2023-02-05T03:04:52.422Z,100.00
2023-02-05T03:07:46.279Z,100.00
2023-02-05T03:10:43.343Z,100.00
2023-02-05T03:13:13.136Z,100.00
2023-02-05T03:15:45.198Z,100.00
2023-02-05T03:18:15.226Z,100.00
2023-02-05T03:21:10.029Z,100.00
2023-02-05T03:23:37.605Z,100.00
2023-02-05T03:26:05.176Z,100.00
2023-02-05T03:28:42.120Z,100.00
2023-02-05T03:31:23.830Z,100.00
2023-02-05T03:34:35.338Z,100.00
2023-02-05T03:37:43.667Z,100.00
2023-02-05T03:40:50.469Z,100.00
2023-02-05T03:43:56.944Z,100.00
2023-02-05T03:47:06.048Z,100.00
2023-02-05T03:50:06.194Z,100.00
2023-02-05T03:52:45.886Z,100.00
2023-02-05T03:55:27.611Z,100.00
2023-02-05T03:58:09.086Z,100.00
2023-02-05T04:00:37.454Z,100.00
2023-02-05T04:03:05.301Z,100.00
2023-02-05T04:05:34.426Z,100.00
2023-02-05T04:08:03.851Z,100.00
2023-02-05T04:10:36.907Z,100.00
2023-02-05T04:13:04.288Z,100.00
2023-02-05T04:15:33.551Z,100.00
2023-02-05T04:18:03.133Z,100.00
2023-02-05T04:20:31.239Z,100.00
2023-02-05T04:22:59.985Z,100.00
2023-02-05T04:25:29.726Z,100.00
2023-02-05T04:28:01.058Z,100.00
2023-02-05T04:30:29.100Z,100.00
2023-02-05T04:32:56.613Z,100.00
2023-02-05T04:35:24.973Z,100.00
2023-02-05T04:37:52.319Z,100.00
2023-02-05T04:40:20.674Z,100.00
2023-02-05T04:42:48.109Z,100.00
2023-02-05T04:45:15.450Z,100.00
2023-02-05T04:47:42.755Z,100.00
2023-02-05T04:50:10.416Z,100.00
2023-02-05T04:52:37.615Z,100.00
2023-02-05T04:55:05.825Z,100.00
2023-02-05T04:57:33.080Z,100.00
2023-02-05T05:00:00.391Z,100.00
2023-02-05T05:02:27.800Z,100.00
2023-02-05T05:04:55.076Z,100.00
2023-02-05T05:07:22.307Z,100.00
2023-02-05T05:09:51.017Z,100.00
2023-02-05T05:12:19.506Z,100.00
2023-02-05T05:14:46.831Z,100.00
2023-02-05T05:17:14.758Z,100.00
2023-02-05T05:19:42.425Z,100.00
2023-02-05T05:22:09.696Z,100.00
2023-02-05T05:24:36.870Z,100.00
2023-02-05T05:27:04.289Z,100.00
2023-02-05T05:29:31.546Z,100.00
2023-02-05T05:31:58.911Z,100.00
2023-02-05T05:34:26.110Z,100.00
2023-02-05T05:36:53.599Z,100.00
2023-02-05T05:39:39.876Z,100.00
2023-02-05T05:42:25.757Z,100.00
2023-02-05T05:44:52.999Z,100.00
2023-02-05T05:47:21.070Z,100.00
2023-02-05T05:49:48.404Z,100.00
2023-02-05T05:52:16.767Z,100.00
2023-02-05T05:54:44.078Z,100.00
2023-02-05T05:57:11.275Z,100.00
2023-02-05T05:59:38.560Z,100.00
2023-02-05T06:02:06.043Z,100.00
2023-02-05T06:04:33.373Z,100.00
2023-02-05T06:07:02.203Z,100.00
2023-02-05T06:09:29.381Z,100.00
2023-02-05T06:11:56.632Z,100.00
2023-02-05T06:14:23.921Z,100.00
2023-02-05T06:16:52.230Z,100.00
2023-02-05T06:19:19.528Z,100.00
2023-02-05T06:21:46.797Z,100.00
2023-02-05T06:24:14.043Z,100.00
2023-02-05T06:26:41.451Z,100.00
2023-02-05T06:29:08.690Z,100.00
2023-02-05T06:31:37.031Z,100.00
2023-02-05T06:34:04.411Z,100.00
2023-02-05T06:36:31.670Z,100.00
2023-02-05T06:38:58.937Z,100.00
2023-02-05T06:41:26.169Z,100.00
2023-02-05T06:43:53.517Z,100.00
2023-02-05T06:46:20.794Z,100.00
2023-02-05T06:48:48.179Z,100.00
2023-02-05T06:51:15.555Z,100.00
2023-02-05T06:53:43.644Z,100.00
2023-02-05T06:56:10.897Z,100.00
2023-02-05T06:58:38.209Z,100.00
2023-02-05T07:01:05.536Z,100.00
2023-02-05T07:03:32.750Z,100.00
2023-02-05T07:06:06.513Z,100.00
2023-02-05T07:08:35.109Z,100.00
2023-02-05T07:11:03.230Z,100.00
2023-02-05T07:13:30.864Z,100.00
2023-02-05T07:15:58.080Z,100.00
2023-02-05T07:18:25.551Z,100.00
2023-02-05T07:20:53.213Z,100.00
2023-02-05T07:23:20.531Z,100.00
2023-02-05T07:25:47.797Z,100.00
2023-02-05T07:28:15.078Z,100.00
2023-02-05T07:30:42.449Z,100.00
2023-02-05T07:33:10.118Z,100.00
2023-02-05T07:35:39.262Z,100.00
2023-02-05T07:38:06.508Z,100.00
2023-02-05T07:40:33.771Z,100.00
2023-02-05T07:43:01.002Z,100.00
2023-02-05T07:45:28.204Z,100.00
2023-02-05T07:47:55.686Z,100.00
2023-02-05T07:50:22.988Z,100.00
2023-02-05T07:52:50.181Z,100.00
2023-02-05T07:55:17.569Z,100.00
2023-02-05T07:57:45.009Z,100.00
2023-02-05T08:00:13.166Z,100.00
2023-02-05T08:02:40.569Z,100.00
2023-02-05T08:05:10.933Z,100.00
2023-02-05T08:07:38.838Z,100.00
2023-02-05T08:10:06.911Z,100.00
2023-02-05T08:12:34.237Z,100.00
2023-02-05T08:15:03.975Z,100.00
2023-02-05T08:17:31.318Z,100.00
2023-02-05T08:20:03.056Z,100.00
2023-02-05T08:22:30.447Z,100.00
2023-02-05T08:24:57.696Z,100.00
2023-02-05T08:27:24.969Z,100.00
2023-02-05T08:29:52.368Z,100.00
2023-02-05T08:32:19.636Z,100.00
2023-02-05T08:34:46.846Z,100.00
2023-02-05T08:37:14.131Z,100.00
2023-02-05T08:39:41.870Z,100.00
2023-02-05T08:42:09.076Z,100.00
2023-02-05T08:44:36.364Z,100.00
2023-02-05T08:47:05.014Z,100.00
2023-02-05T08:49:32.361Z,100.00
2023-02-05T08:51:59.721Z,100.00
2023-02-05T08:54:27.252Z,100.00
2023-02-05T08:56:55.140Z,100.00
2023-02-05T08:59:22.446Z,100.00
2023-02-05T09:01:50.225Z,100.00
2023-02-05T09:04:22.281Z,100.00
2023-02-05T09:06:51.572Z,100.00
2023-02-05T09:09:19.637Z,100.00
2023-02-05T09:11:47.718Z,100.00
2023-02-05T09:14:15.948Z,100.00
2023-02-05T09:16:43.170Z,100.00
2023-02-05T09:19:10.417Z,100.00
2023-02-05T09:21:37.645Z,100.00
2023-02-05T09:24:05.477Z,100.00
2023-02-05T09:26:32.820Z,100.00
2023-02-05T09:29:00.043Z,100.00
2023-02-05T09:31:27.813Z,100.00
2023-02-05T09:33:55.861Z,100.00
2023-02-05T09:36:24.163Z,100.00
2023-02-05T09:39:04.977Z,100.00
2023-02-05T09:42:06.844Z,100.00
2023-02-05T09:45:06.835Z,100.00
2023-02-05T09:47:54.509Z,100.00
2023-02-05T09:50:29.849Z,100.00
2023-02-05T09:53:05.986Z,100.00
2023-02-05T09:55:47.184Z,100.00
2023-02-05T09:58:27.365Z,100.00
2023-02-05T10:01:07.448Z,100.00
2023-02-05T10:03:54.944Z,100.00
2023-02-05T10:07:20.681Z,100.00
2023-02-05T10:10:16.028Z,100.00
2023-02-05T10:12:59.938Z,100.00
2023-02-05T10:16:01.411Z,100.00
2023-02-05T10:19:03.571Z,100.00
2023-02-05T10:22:15.067Z,100.00
2023-02-05T10:25:34.047Z,100.00
2023-02-05T10:28:41.134Z,100.00
2023-02-05T10:31:55.068Z,100.00
2023-02-05T10:35:02.782Z,100.00
2023-02-05T10:37:52.834Z,100.00
2023-02-05T10:40:39.296Z,99.10
2023-02-05T10:43:37.259Z,63.23
2023-02-05T10:46:12.328Z,50.74
2023-02-05T10:49:04.508Z,46.27
2023-02-05T10:51:40.826Z,45.34
2023-02-05T10:54:33.626Z,41.35
2023-02-05T10:57:01.487Z,46.05
2023-02-05T10:59:33.928Z,40.37
2023-02-05T11:02:09.171Z,38.33
2023-02-05T11:05:02.654Z,37.56
2023-02-05T11:07:47.014Z,39.01
2023-02-05T11:10:27.148Z,39.19
2023-02-05T11:13:22.082Z,37.97
2023-02-05T11:16:02.623Z,38.83
2023-02-05T11:18:40.619Z,36.76
2023-02-05T11:21:09.820Z,35.74
2023-02-05T11:23:40.241Z,38.36
2023-02-05T11:26:23.949Z,52.93
2023-02-05T11:28:51.358Z,59.89
2023-02-05T11:31:34.673Z,55.29
2023-02-05T11:34:08.030Z,43.94
2023-02-05T11:36:39.842Z,41.44
2023-02-05T11:39:07.893Z,43.77
2023-02-05T11:41:48.387Z,45.91
2023-02-05T11:44:32.211Z,43.77
2023-02-05T11:47:02.121Z,50.29
2023-02-05T11:49:41.271Z,56.95
2023-02-05T11:52:13.446Z,76.26
2023-02-05T11:54:47.526Z,75.95
2023-02-05T11:57:17.831Z,74.83
2023-02-05T12:00:00.537Z,77.63
2023-02-05T12:02:31.287Z,73.98
2023-02-05T12:05:13.045Z,82.81
2023-02-05T12:08:18.207Z,84.70
2023-02-05T12:11:24.581Z,84.18
2023-02-05T12:14:03.190Z,83.93
2023-02-05T12:17:02.832Z,85.33
2023-02-05T12:20:26.226Z,83.37
2023-02-05T12:23:36.328Z,82.64
2023-02-05T12:26:36.351Z,84.58
2023-02-05T12:29:43.361Z,85.77
2023-02-05T12:36:29.651Z,94.89
2023-02-05T12:39:37.101Z,91.03
2023-02-05T12:42:31.974Z,91.36
2023-02-05T12:45:36.034Z,93.76
2023-02-05T12:48:59.393Z,93.67
2023-02-05T12:52:12.869Z,85.50
2023-02-05T12:55:42.872Z,91.69
2023-02-05T12:58:13.766Z,82.50
2023-02-05T13:00:54.634Z,83.35
2023-02-05T13:03:36.408Z,82.64
2023-02-05T13:06:33.531Z,88.98
2023-02-05T13:09:22.145Z,88.71
2023-02-05T13:12:04.987Z,85.54
2023-02-05T13:14:45.076Z,82.90
2023-02-05T13:17:28.626Z,78.90
2023-02-05T13:20:06.105Z,75.27
2023-02-05T13:23:04.948Z,81.86
2023-02-05T13:25:57.386Z,89.63
2023-02-05T13:28:44.830Z,85.01
2023-02-05T13:31:26.895Z,81.19
2023-02-05T13:34:02.350Z,82.85
2023-02-05T13:37:03.364Z,84.62
2023-02-05T13:40:36.203Z,84.48
2023-02-05T13:43:43.313Z,84.99
2023-02-05T13:47:02.031Z,77.06
2023-02-05T13:50:12.417Z,83.18
2023-02-05T13:53:24.137Z,83.74
2023-02-05T13:56:34.242Z,82.47
2023-02-05T13:59:12.286Z,81.30
2023-02-05T14:01:57.780Z,78.45
2023-02-05T14:04:34.524Z,80.65
2023-02-05T14:07:19.576Z,84.02
2023-02-05T14:10:00.939Z,83.10
2023-02-05T14:12:35.473Z,86.03
2023-02-05T14:15:18.317Z,84.22
2023-02-05T14:17:45.376Z,87.07
2023-02-05T14:20:37.656Z,87.92
2023-02-05T14:23:45.897Z,96.46
2023-02-05T14:26:13.158Z,94.21
2023-02-05T14:28:52.175Z,93.26
2023-02-05T14:31:49.339Z,90.13
2023-02-05T14:34:33.941Z,90.91
2023-02-05T14:37:01.466Z,93.51
2023-02-05T14:39:34.829Z,97.64
2023-02-05T14:42:06.995Z,98.48
2023-02-05T14:44:42.266Z,97.52
2023-02-05T14:47:31.658Z,100.00
2023-02-05T14:50:18.644Z,99.28
2023-02-05T14:52:56.888Z,91.74
2023-02-05T14:55:40.201Z,96.30
2023-02-05T14:58:25.044Z,97.01
2023-02-05T15:01:30.856Z,95.52
2023-02-05T15:04:02.187Z,87.55
2023-02-05T15:06:38.911Z,97.31
2023-02-05T15:09:17.681Z,100.00
2023-02-05T15:12:55.030Z,100.00
2023-02-05T15:15:37.398Z,100.00
2023-02-05T15:18:24.930Z,97.51
2023-02-05T15:20:56.273Z,93.26
2023-02-05T15:23:40.876Z,94.70
2023-02-05T15:26:52.215Z,100.00
2023-02-05T15:29:58.675Z,97.14
2023-02-05T15:33:01.475Z,93.87
2023-02-05T15:35:33.048Z,97.56
2023-02-05T15:38:35.553Z,94.81
2023-02-05T15:41:07.660Z,94.93
2023-02-05T15:43:34.920Z,99.40
2023-02-05T15:46:07.559Z,98.09
2023-02-05T15:48:38.492Z,100.00
2023-02-05T15:51:30.713Z,100.00
2023-02-05T15:54:02.390Z,100.00
2023-02-05T15:56:42.276Z,100.00
2023-02-05T15:59:21.898Z,100.00
2023-02-05T16:02:25.849Z,100.00
2023-02-05T16:05:18.973Z,100.00
2023-02-05T16:07:55.305Z,100.00
2023-02-05T16:10:27.706Z,100.00
2023-02-05T16:13:17.865Z,100.00
2023-02-05T16:16:10.170Z,100.00
2023-02-05T16:18:53.501Z,100.00
2023-02-05T16:21:31.430Z,100.00
2023-02-05T16:24:05.080Z,100.00
2023-02-05T16:26:40.841Z,100.00
2023-02-05T16:29:25.634Z,100.00
2023-02-05T16:32:04.062Z,100.00
2023-02-05T16:34:33.815Z,100.00
2023-02-05T16:37:10.209Z,100.00
2023-02-05T16:39:50.865Z,100.00
2023-02-05T16:42:31.762Z,100.00
2023-02-05T16:45:23.426Z,100.00
2023-02-05T16:48:26.281Z,100.00
2023-02-05T16:50:53.778Z,100.00
2023-02-05T16:53:26.898Z,100.00
2023-02-05T16:56:13.828Z,100.00
2023-02-05T16:58:52.569Z,100.00
2023-02-05T17:01:43.257Z,100.00
2023-02-05T17:04:31.988Z,100.00
2023-02-05T17:07:02.326Z,100.00
2023-02-05T17:09:40.255Z,100.00
2023-02-05T17:12:22.392Z,100.00
2023-02-05T17:15:20.202Z,100.00
2023-02-05T17:18:06.273Z,100.00
2023-02-05T17:20:34.328Z,100.00
2023-02-05T17:23:05.201Z,100.00
2023-02-05T17:25:55.781Z,100.00
2023-02-05T17:28:27.468Z,100.00
2023-02-05T17:30:59.894Z,100.00
2023-02-05T17:33:29.831Z,100.00
2023-02-05T17:35:57.116Z,100.00
2023-02-05T17:38:24.421Z,100.00
2023-02-05T17:41:11.813Z,100.00
2023-02-05T17:43:39.269Z,100.00
2023-02-05T17:46:14.720Z,100.00
2023-02-05T17:48:42.345Z,100.00
2023-02-05T17:51:21.719Z,100.00
2023-02-05T17:53:50.202Z,100.00
2023-02-05T17:56:19.271Z,100.00
2023-02-05T17:58:48.436Z,100.00
2023-02-05T18:01:16.229Z,100.00
2023-02-05T18:03:44.013Z,100.00
2023-02-05T18:06:15.709Z,100.00
2023-02-05T18:08:43.413Z,100.00
2023-02-05T18:11:11.123Z,100.00
2023-02-05T18:13:38.623Z,100.00
2023-02-05T18:16:06.115Z,100.00
2023-02-05T18:18:38.986Z,100.00
2023-02-05T18:21:07.386Z,100.00
2023-02-05T18:23:34.723Z,100.00
2023-02-05T18:26:04.746Z,100.00
2023-02-05T18:28:33.131Z,100.00
2023-02-05T18:31:07.253Z,100.00
2023-02-05T18:33:35.361Z,100.00
2023-02-05T18:36:07.530Z,100.00
2023-02-05T18:38:36.481Z,100.00
2023-02-05T18:41:22.796Z,100.00
2023-02-05T18:43:56.055Z,100.00
2023-02-05T18:46:24.610Z,100.00
2023-02-05T18:48:52.336Z,100.00
2023-02-05T18:51:23.532Z,100.00
2023-02-05T18:53:50.782Z,100.00
2023-02-05T18:56:28.181Z,100.00
2023-02-05T18:59:06.943Z,100.00
2023-02-05T19:01:38.529Z,100.00
2023-02-05T19:04:11.337Z,100.00
2023-02-05T19:06:48.932Z,100.00
2023-02-05T19:09:16.662Z,100.00
2023-02-05T19:11:44.208Z,100.00
2023-02-05T19:14:15.520Z,100.00
2023-02-05T19:16:44.153Z,100.00
2023-02-05T19:19:21.793Z,100.00
2023-02-05T19:21:55.777Z,100.00
2023-02-05T19:24:23.504Z,100.00
2023-02-05T19:26:51.218Z,100.00
2023-02-05T19:29:20.406Z,100.00
2023-02-05T19:31:49.991Z,100.00
2023-02-05T19:34:17.312Z,100.00
2023-02-05T19:36:44.662Z,100.00
2023-02-05T19:39:14.770Z,100.00
2023-02-05T19:41:45.452Z,100.00
2023-02-05T19:44:12.950Z,100.00
2023-02-05T19:46:47.160Z,100.00
2023-02-05T19:49:22.095Z,100.00
2023-02-05T19:51:55.133Z,100.00
2023-02-05T19:54:22.855Z,100.00
2023-02-05T19:56:50.953Z,100.00
2023-02-05T19:59:19.339Z,100.00
2023-02-05T20:01:47.184Z,100.00
2023-02-05T20:04:28.448Z,100.00
2023-02-05T20:07:00.259Z,100.00
2023-02-05T20:09:28.450Z,100.00
2023-02-05T20:11:55.748Z,100.00
2023-02-05T20:14:24.165Z,100.00
2023-02-05T20:16:52.084Z,100.00
2023-02-05T20:19:19.791Z,100.00
2023-02-05T20:21:47.877Z,100.00
2023-02-05T20:24:16.364Z,100.00
2023-02-05T20:26:47.731Z,100.00
2023-02-05T20:29:33.825Z,100.00
2023-02-05T20:32:01.992Z,100.00
2023-02-05T20:34:36.030Z,100.00
2023-02-05T20:37:07.115Z,100.00
2023-02-05T20:39:38.480Z,100.00
2023-02-05T20:42:05.999Z,100.00
2023-02-05T20:44:36.283Z,100.00
2023-02-05T20:47:07.424Z,100.00
2023-02-05T20:49:40.054Z,100.00
2023-02-05T20:52:09.635Z,100.00
2023-02-05T20:54:37.507Z,100.00
2023-02-05T20:57:04.832Z,100.00
2023-02-05T20:59:33.709Z,100.00
2023-02-05T21:02:02.497Z,100.00
2023-02-05T21:04:30.398Z,100.00
2023-02-05T21:06:58.440Z,100.00
2023-02-05T21:09:25.730Z,100.00
2023-02-05T21:11:55.404Z,100.00
2023-02-05T21:14:23.913Z,100.00
2023-02-05T21:16:51.261Z,100.00
2023-02-05T21:19:19.505Z,100.00
2023-02-05T21:21:46.947Z,100.00
2023-02-05T21:24:16.225Z,100.00
2023-02-05T21:26:49.718Z,100.00
2023-02-05T21:29:20.854Z,100.00
2023-02-05T21:31:55.474Z,100.00
2023-02-05T21:34:27.203Z,100.00
2023-02-05T21:36:55.696Z,100.00
2023-02-05T21:39:23.872Z,100.00
2023-02-05T21:41:51.387Z,100.00
2023-02-05T21:44:18.695Z,100.00
2023-02-05T21:46:45.955Z,100.00
2023-02-05T21:49:13.425Z,100.00
2023-02-05T21:51:42.521Z,100.00
2023-02-05T21:54:11.769Z,100.00
2023-02-05T21:56:43.085Z,100.00
2023-02-05T21:59:12.843Z,100.00
2023-02-05T22:01:42.117Z,100.00
2023-02-05T22:04:15.171Z,100.00
2023-02-05T22:06:43.783Z,100.00
2023-02-05T22:09:15.633Z,100.00
2023-02-05T22:11:44.642Z,100.00
2023-02-05T22:14:13.486Z,100.00
2023-02-05T22:16:41.045Z,100.00
2023-02-05T22:19:09.174Z,100.00
2023-02-05T22:21:40.771Z,100.00
2023-02-05T22:24:13.446Z,100.00
2023-02-05T22:26:41.845Z,100.00
2023-02-05T22:29:15.148Z,100.00
2023-02-05T22:31:44.534Z,100.00
2023-02-05T22:34:12.541Z,100.00
2023-02-05T22:36:39.840Z,100.00
2023-02-05T22:39:07.578Z,100.00
2023-02-05T22:41:39.330Z,100.00
2023-02-05T22:44:09.328Z,100.00
2023-02-05T22:46:43.833Z,100.00
2023-02-05T22:49:15.292Z,100.00
2023-02-05T22:51:43.278Z,100.00
2023-02-05T22:54:13.523Z,100.00
2023-02-05T22:56:40.783Z,100.00
2023-02-05T22:59:08.770Z,100.00
2023-02-05T23:01:38.935Z,100.00
2023-02-05T23:04:10.477Z,100.00
2023-02-05T23:06:41.986Z,100.00
2023-02-05T23:09:17.109Z,100.00
2023-02-05T23:11:45.574Z,100.00
2023-02-05T23:14:17.033Z,100.00
2023-02-05T23:16:47.069Z,100.00
2023-02-05T23:19:19.691Z,100.00
2023-02-05T23:21:48.119Z,100.00
2023-02-05T23:24:16.454Z,100.00
2023-02-05T23:26:47.954Z,100.00
2023-02-05T23:29:17.714Z,100.00
2023-02-05T23:31:45.773Z,100.00
2023-02-05T23:34:13.721Z,100.00
2023-02-05T23:36:41.178Z,100.00
2023-02-05T23:39:08.736Z,100.00
2023-02-05T23:41:36.406Z,100.00
2023-02-05T23:44:15.533Z,100.00
2023-02-05T23:46:45.527Z,100.00
2023-02-05T23:49:13.643Z,100.00
2023-02-05T23:51:41.593Z,100.00
2023-02-05T23:54:11.264Z,100.00
2023-02-05T23:56:39.184Z,100.00
2023-02-05T23:59:07.688Z,100.00
